Salvamar Mimosa — EC2473 — position and weather

sailwx.info

Track history (hours):
 
Tides and Currents Weather Stations Pressure Air Temp Water Temp Dewpoint Dewpoint Depression Visibility Wind Speed Wind Dir Waves Ship Positions

Salvamar Mimosa

Last reported at 2018-May-19 13:17 UTC. Time now 2018-May-26 14:07 UTC.
Position N 37°24' W 001°33'.

Length 21 m; draft 1.2 m.

Type: SAR. MMSI: 224363280.

Date/timePositionNaut miles runAvg speedWind from/ knotsBaromVisibWave heightAir tempDewpointWater temp
2018-May-19 13:17N 37°24' W 001°33'2 4.6
2018-May-19 12:57N 37°24' W 001°35'0 0.0
2018-May-19 12:27N 37°24' W 001°35'0 0.0
2018-May-19 11:57N 37°24' W 001°35'0 0.0
2018-May-19 11:27N 37°24' W 001°35'0 0.0
2018-May-19 10:57N 37°24' W 001°35'0 0.0
2018-May-19 10:27N 37°24' W 001°35'0 0.0
2018-May-19 09:57N 37°24' W 001°35'1 2.1
2018-May-19 09:30N 37°24' W 001°34'1 1.7
2018-May-19 09:00N 37°24' W 001°35'0 0.1
2018-May-19 08:30N 37°24' W 001°35'  
2018-May-10 13:17N 37°33' W 000°58'622.3
2018-May-10 13:00N 37°34' W 000°50'7 6.5
2018-May-10 11:57N 37°32' W 000°42'1021.7
2018-May-10 11:30N 37°33' W 000°54'  
Track history (hours):
 
Tides and Currents Weather Stations Pressure Air Temp Water Temp Dewpoint Dewpoint Depression Visibility Wind Speed Wind Dir Waves Ship Positions

Salvamar Mimosa

Last reported at 2018-May-19 13:17 UTC. Time now 2018-May-26 14:07 UTC.
Position N 37°24' W 001°33'.

Length 21 m; draft 1.2 m.

Type: SAR. MMSI: 224363280.

Date/timePositionNaut miles runAvg speedWind from/ knotsBaromVisibWave heightAir tempDewpointWater temp
2018-May-19 13:17N 37°24' W 001°33'2 4.6
2018-May-19 12:57N 37°24' W 001°35'0 0.0
2018-May-19 12:27N 37°24' W 001°35'0 0.0
2018-May-19 11:57N 37°24' W 001°35'0 0.0
2018-May-19 11:27N 37°24' W 001°35'0 0.0
2018-May-19 10:57N 37°24' W 001°35'0 0.0
2018-May-19 10:27N 37°24' W 001°35'0 0.0
2018-May-19 09:57N 37°24' W 001°35'1 2.1
2018-May-19 09:30N 37°24' W 001°34'1 1.7
2018-May-19 09:00N 37°24' W 001°35'0 0.1
2018-May-19 08:30N 37°24' W 001°35'  
2018-May-10 13:17N 37°33' W 000°58'622.3
2018-May-10 13:00N 37°34' W 000°50'7 6.5
2018-May-10 11:57N 37°32' W 000°42'1021.7
2018-May-10 11:30N 37°33' W 000°54'  

Dump ship's entire track history